sensor_id;sensor_type;location;lat;lon;timestamp;temperature;humidity
18207;DHT22;9229;52.354;20.886;2023-07-02T00:01:49;17.80;99.90
18207;DHT22;9229;52.354;20.886;2023-07-02T00:07:13;17.60;99.90
18207;DHT22;9229;52.354;20.886;2023-07-02T00:19:13;17.50;99.90
18207;DHT22;9229;52.354;20.886;2023-07-02T00:24:24;17.50;99.90
18207;DHT22;9229;52.354;20.886;2023-07-02T00:29:26;17.40;99.90
18207;DHT22;9229;52.354;20.886;2023-07-02T00:34:36;17.50;99.90
18207;DHT22;9229;52.354;20.886;2023-07-02T00:59:06;17.20;99.90
18207;DHT22;9229;52.354;20.886;2023-07-02T01:10:32;17.20;99.90
18207;DHT22;9229;52.354;20.886;2023-07-02T01:15:39;17.10;99.90
18207;DHT22;9229;52.354;20.886;2023-07-02T01:20:47;17.10;99.90
18207;DHT22;9229;52.354;20.886;2023-07-02T01:26:26;17.10;99.90
18207;DHT22;9229;52.354;20.886;2023-07-02T01:44:24;17.00;99.90
18207;DHT22;9229;52.354;20.886;2023-07-02T01:49:33;17.10;99.90
18207;DHT22;9229;52.354;20.886;2023-07-02T01:54:51;17.20;99.90
18207;DHT22;9229;52.354;20.886;2023-07-02T02:00:17;17.20;99.90
18207;DHT22;9229;52.354;20.886;2023-07-02T02:06:14;17.30;99.90
18207;DHT22;9229;52.354;20.886;2023-07-02T02:11:30;17.30;99.90
18207;DHT22;9229;52.354;20.886;2023-07-02T02:17:17;17.40;99.90
18207;DHT22;9229;52.354;20.886;2023-07-02T02:23:14;17.50;99.90
18207;DHT22;9229;52.354;20.886;2023-07-02T02:28:32;17.50;99.90
18207;DHT22;9229;52.354;20.886;2023-07-02T02:34:13;17.50;99.90
18207;DHT22;9229;52.354;20.886;2023-07-02T02:39:55;17.70;99.90
18207;DHT22;9229;52.354;20.886;2023-07-02T02:45:08;17.60;99.90
18207;DHT22;9229;52.354;20.886;2023-07-02T02:50:27;17.70;99.90
18207;DHT22;9229;52.354;20.886;2023-07-02T02:55:34;17.80;99.90
18207;DHT22;9229;52.354;20.886;2023-07-02T03:01:18;17.80;99.90
18207;DHT22;9229;52.354;20.886;2023-07-02T03:06:23;17.90;99.90
18207;DHT22;9229;52.354;20.886;2023-07-02T03:11:40;17.90;99.90
18207;DHT22;9229;52.354;20.886;2023-07-02T03:17:05;18.00;99.90
18207;DHT22;9229;52.354;20.886;2023-07-02T03:22:42;18.10;99.90
18207;DHT22;9229;52.354;20.886;2023-07-02T03:28:07;18.10;99.90
18207;DHT22;9229;52.354;20.886;2023-07-02T03:33:23;18.20;99.90
18207;DHT22;9229;52.354;20.886;2023-07-02T03:38:31;18.20;99.90
18207;DHT22;9229;52.354;20.886;2023-07-02T03:43:42;18.30;99.90
18207;DHT22;9229;52.354;20.886;2023-07-02T03:48:47;18.40;99.90
18207;DHT22;9229;52.354;20.886;2023-07-02T03:54:02;18.50;99.90
18207;DHT22;9229;52.354;20.886;2023-07-02T03:59:16;18.50;99.90
18207;DHT22;9229;52.354;20.886;2023-07-02T04:04:45;18.60;99.90
18207;DHT22;9229;52.354;20.886;2023-07-02T04:10:32;18.80;99.90
18207;DHT22;9229;52.354;20.886;2023-07-02T04:21:35;18.90;99.90
18207;DHT22;9229;52.354;20.886;2023-07-02T04:26:52;19.00;99.90
18207;DHT22;9229;52.354;20.886;2023-07-02T04:37:32;19.20;99.90
18207;DHT22;9229;52.354;20.886;2023-07-02T04:43:05;19.30;99.90
18207;DHT22;9229;52.354;20.886;2023-07-02T04:48:28;19.40;99.90
18207;DHT22;9229;52.354;20.886;2023-07-02T05:18:02;19.80;99.90
18207;DHT22;9229;52.354;20.886;2023-07-02T05:23:06;19.90;99.90
18207;DHT22;9229;52.354;20.886;2023-07-02T05:28:14;20.10;99.90
18207;DHT22;9229;52.354;20.886;2023-07-02T05:33:24;20.40;99.90
18207;DHT22;9229;52.354;20.886;2023-07-02T05:38:40;20.70;99.90
18207;DHT22;9229;52.354;20.886;2023-07-02T05:43:42;20.90;99.90
18207;DHT22;9229;52.354;20.886;2023-07-02T05:48:56;21.10;99.90
18207;DHT22;9229;52.354;20.886;2023-07-02T05:54:02;21.30;99.90
18207;DHT22;9229;52.354;20.886;2023-07-02T05:59:04;21.40;99.90
18207;DHT22;9229;52.354;20.886;2023-07-02T06:04:08;21.70;99.90
18207;DHT22;9229;52.354;20.886;2023-07-02T06:09:10;22.10;99.90
18207;DHT22;9229;52.354;20.886;2023-07-02T06:14:12;22.20;99.90
18207;DHT22;9229;52.354;20.886;2023-07-02T06:19:16;22.30;99.90
18207;DHT22;9229;52.354;20.886;2023-07-02T06:24:18;22.30;99.90
18207;DHT22;9229;52.354;20.886;2023-07-02T06:29:25;22.30;99.90
18207;DHT22;9229;52.354;20.886;2023-07-02T06:34:30;22.40;99.90
18207;DHT22;9229;52.354;20.886;2023-07-02T06:39:32;23.10;99.90
18207;DHT22;9229;52.354;20.886;2023-07-02T06:44:34;23.80;99.90
18207;DHT22;9229;52.354;20.886;2023-07-02T06:49:38;24.00;99.90
18207;DHT22;9229;52.354;20.886;2023-07-02T06:54:40;24.00;99.90
18207;DHT22;9229;52.354;20.886;2023-07-02T06:59:42;24.10;99.90
18207;DHT22;9229;52.354;20.886;2023-07-02T07:04:46;23.90;99.90
18207;DHT22;9229;52.354;20.886;2023-07-02T07:09:48;23.70;99.90
18207;DHT22;9229;52.354;20.886;2023-07-02T07:14:50;23.60;99.90
18207;DHT22;9229;52.354;20.886;2023-07-02T07:19:53;23.30;99.90
18207;DHT22;9229;52.354;20.886;2023-07-02T07:24:58;22.70;99.90
18207;DHT22;9229;52.354;20.886;2023-07-02T07:30:03;22.10;99.90
18207;DHT22;9229;52.354;20.886;2023-07-02T07:35:13;21.90;99.90
18207;DHT22;9229;52.354;20.886;2023-07-02T07:40:16;22.10;99.90
18207;DHT22;9229;52.354;20.886;2023-07-02T07:45:34;22.50;99.90
18207;DHT22;9229;52.354;20.886;2023-07-02T07:51:17;22.60;99.90
18207;DHT22;9229;52.354;20.886;2023-07-02T07:57:07;22.50;99.90
18207;DHT22;9229;52.354;20.886;2023-07-02T08:02:49;22.40;99.90
18207;DHT22;9229;52.354;20.886;2023-07-02T08:08:04;21.90;99.90
18207;DHT22;9229;52.354;20.886;2023-07-02T08:13:09;21.90;99.90
18207;DHT22;9229;52.354;20.886;2023-07-02T08:18:11;22.20;99.90
18207;DHT22;9229;52.354;20.886;2023-07-02T08:23:15;22.80;99.90
18207;DHT22;9229;52.354;20.886;2023-07-02T08:28:17;23.30;99.90
18207;DHT22;9229;52.354;20.886;2023-07-02T08:33:24;23.30;99.90
18207;DHT22;9229;52.354;20.886;2023-07-02T08:38:27;23.20;99.90
18207;DHT22;9229;52.354;20.886;2023-07-02T08:43:37;22.90;99.90
18207;DHT22;9229;52.354;20.886;2023-07-02T08:49:09;23.40;99.90
18207;DHT22;9229;52.354;20.886;2023-07-02T08:54:13;24.10;99.90
18207;DHT22;9229;52.354;20.886;2023-07-02T08:59:15;25.10;99.90
18207;DHT22;9229;52.354;20.886;2023-07-02T09:04:31;25.00;99.90
18207;DHT22;9229;52.354;20.886;2023-07-02T09:10:04;24.30;99.90
18207;DHT22;9229;52.354;20.886;2023-07-02T09:15:07;23.40;99.90
18207;DHT22;9229;52.354;20.886;2023-07-02T09:20:15;23.20;99.90
18207;DHT22;9229;52.354;20.886;2023-07-02T09:25:33;23.70;99.90
18207;DHT22;9229;52.354;20.886;2023-07-02T09:30:54;25.70;99.90
18207;DHT22;9229;52.354;20.886;2023-07-02T09:36:08;27.10;99.90
18207;DHT22;9229;52.354;20.886;2023-07-02T09:41:13;26.60;99.90
18207;DHT22;9229;52.354;20.886;2023-07-02T09:46:18;26.70;99.90
18207;DHT22;9229;52.354;20.886;2023-07-02T09:51:23;27.20;99.90
18207;DHT22;9229;52.354;20.886;2023-07-02T09:56:37;26.80;99.30
18207;DHT22;9229;52.354;20.886;2023-07-02T10:01:39;26.00;99.90
18207;DHT22;9229;52.354;20.886;2023-07-02T10:06:45;25.90;99.90
18207;DHT22;9229;52.354;20.886;2023-07-02T10:11:53;27.40;99.90
18207;DHT22;9229;52.354;20.886;2023-07-02T10:16:57;29.10;98.40
18207;DHT22;9229;52.354;20.886;2023-07-02T10:22:03;30.50;89.60
18207;DHT22;9229;52.354;20.886;2023-07-02T10:27:13;28.70;90.30
18207;DHT22;9229;52.354;20.886;2023-07-02T10:32:27;27.00;90.90
18207;DHT22;9229;52.354;20.886;2023-07-02T10:37:36;25.60;92.20
18207;DHT22;9229;52.354;20.886;2023-07-02T10:42:47;24.70;93.80
18207;DHT22;9229;52.354;20.886;2023-07-02T10:47:51;24.20;94.70
18207;DHT22;9229;52.354;20.886;2023-07-02T10:52:53;23.80;95.10
18207;DHT22;9229;52.354;20.886;2023-07-02T10:58:08;23.60;96.40
18207;DHT22;9229;52.354;20.886;2023-07-02T11:03:16;23.30;98.50
18207;DHT22;9229;52.354;20.886;2023-07-02T11:08:19;23.20;99.20
18207;DHT22;9229;52.354;20.886;2023-07-02T11:13:23;23.20;98.80
18207;DHT22;9229;52.354;20.886;2023-07-02T11:18:30;24.70;97.60
18207;DHT22;9229;52.354;20.886;2023-07-02T11:23:35;26.70;95.20
18207;DHT22;9229;52.354;20.886;2023-07-02T11:28:50;26.40;92.00
18207;DHT22;9229;52.354;20.886;2023-07-02T11:33:55;25.80;93.60
18207;DHT22;9229;52.354;20.886;2023-07-02T11:38:57;25.10;93.40
18207;DHT22;9229;52.354;20.886;2023-07-02T11:44:06;25.10;93.20
18207;DHT22;9229;52.354;20.886;2023-07-02T11:49:08;26.10;93.00
18207;DHT22;9229;52.354;20.886;2023-07-02T11:54:10;26.70;91.50
18207;DHT22;9229;52.354;20.886;2023-07-02T11:59:14;26.40;91.70
18207;DHT22;9229;52.354;20.886;2023-07-02T12:04:15;26.90;91.80
18207;DHT22;9229;52.354;20.886;2023-07-02T12:09:18;27.50;91.20
18207;DHT22;9229;52.354;20.886;2023-07-02T12:14:21;27.40;90.80
18207;DHT22;9229;52.354;20.886;2023-07-02T12:19:23;28.20;89.60
18207;DHT22;9229;52.354;20.886;2023-07-02T12:24:26;28.00;89.00
18207;DHT22;9229;52.354;20.886;2023-07-02T12:29:31;27.60;89.80
18207;DHT22;9229;52.354;20.886;2023-07-02T12:34:33;27.70;89.40
18207;DHT22;9229;52.354;20.886;2023-07-02T12:39:35;27.00;78.90
18207;DHT22;9229;52.354;20.886;2023-07-02T12:50:19;27.30;74.00
18207;DHT22;9229;52.354;20.886;2023-07-02T12:55:32;28.80;71.50
18207;DHT22;9229;52.354;20.886;2023-07-02T13:00:37;30.30;64.60
18207;DHT22;9229;52.354;20.886;2023-07-02T13:05:40;29.80;62.60
18207;DHT22;9229;52.354;20.886;2023-07-02T13:10:46;30.00;63.90
18207;DHT22;9229;52.354;20.886;2023-07-02T13:15:48;30.10;59.00
18207;DHT22;9229;52.354;20.886;2023-07-02T13:20:53;29.10;58.30
18207;DHT22;9229;52.354;20.886;2023-07-02T13:25:55;28.30;58.60
18207;DHT22;9229;52.354;20.886;2023-07-02T13:30:57;27.60;58.80
18207;DHT22;9229;52.354;20.886;2023-07-02T13:36:01;27.20;59.10
18207;DHT22;9229;52.354;20.886;2023-07-02T13:41:05;27.10;57.50
18207;DHT22;9229;52.354;20.886;2023-07-02T13:46:07;27.00;56.00
18207;DHT22;9229;52.354;20.886;2023-07-02T13:51:11;27.30;55.20
18207;DHT22;9229;52.354;20.886;2023-07-02T13:56:13;29.10;54.40
18207;DHT22;9229;52.354;20.886;2023-07-02T14:01:38;29.90;52.30
18207;DHT22;9229;52.354;20.886;2023-07-02T14:06:42;30.10;50.20
18207;DHT22;9229;52.354;20.886;2023-07-02T14:18:23;29.30;51.70
18207;DHT22;9229;52.354;20.886;2023-07-02T14:23:25;28.00;53.30
18207;DHT22;9229;52.354;20.886;2023-07-02T14:28:43;27.40;54.10
18207;DHT22;9229;52.354;20.886;2023-07-02T14:34:03;27.00;54.40
18207;DHT22;9229;52.354;20.886;2023-07-02T14:39:05;26.80;53.60
18207;DHT22;9229;52.354;20.886;2023-07-02T14:44:08;26.40;52.90
18207;DHT22;9229;52.354;20.886;2023-07-02T14:49:11;26.20;54.60
18207;DHT22;9229;52.354;20.886;2023-07-02T14:54:13;26.10;55.10
18207;DHT22;9229;52.354;20.886;2023-07-02T14:59:15;26.30;54.60
18207;DHT22;9229;52.354;20.886;2023-07-02T15:04:19;26.50;55.60
18207;DHT22;9229;52.354;20.886;2023-07-02T15:09:21;26.70;55.50
18207;DHT22;9229;52.354;20.886;2023-07-02T15:14:25;26.80;55.10
18207;DHT22;9229;52.354;20.886;2023-07-02T15:19:29;26.50;55.90
18207;DHT22;9229;52.354;20.886;2023-07-02T15:24:31;26.30;56.20
18207;DHT22;9229;52.354;20.886;2023-07-02T15:29:33;26.10;55.90
18207;DHT22;9229;52.354;20.886;2023-07-02T15:34:40;26.10;57.40
18207;DHT22;9229;52.354;20.886;2023-07-02T15:39:44;26.00;56.40
18207;DHT22;9229;52.354;20.886;2023-07-02T15:44:46;25.70;55.80
18207;DHT22;9229;52.354;20.886;2023-07-02T15:49:50;25.50;56.60
18207;DHT22;9229;52.354;20.886;2023-07-02T15:54:52;25.50;57.90
18207;DHT22;9229;52.354;20.886;2023-07-02T15:59:54;25.50;55.60
18207;DHT22;9229;52.354;20.886;2023-07-02T16:05:00;25.30;54.40
18207;DHT22;9229;52.354;20.886;2023-07-02T16:10:08;25.20;55.10
18207;DHT22;9229;52.354;20.886;2023-07-02T16:15:11;25.10;55.80
18207;DHT22;9229;52.354;20.886;2023-07-02T16:20:16;25.00;54.90
18207;DHT22;9229;52.354;20.886;2023-07-02T16:25:18;24.80;56.30
18207;DHT22;9229;52.354;20.886;2023-07-02T16:30:24;24.70;56.90
18207;DHT22;9229;52.354;20.886;2023-07-02T16:35:33;24.60;57.10
18207;DHT22;9229;52.354;20.886;2023-07-02T16:40:38;24.50;58.00
18207;DHT22;9229;52.354;20.886;2023-07-02T16:45:40;24.60;58.00
18207;DHT22;9229;52.354;20.886;2023-07-02T16:50:43;24.60;58.80
18207;DHT22;9229;52.354;20.886;2023-07-02T16:55:45;24.70;59.10
18207;DHT22;9229;52.354;20.886;2023-07-02T17:00:51;24.70;59.10
18207;DHT22;9229;52.354;20.886;2023-07-02T17:05:58;24.70;59.60
18207;DHT22;9229;52.354;20.886;2023-07-02T17:11:00;24.60;59.80
18207;DHT22;9229;52.354;20.886;2023-07-02T17:16:04;24.90;60.40
18207;DHT22;9229;52.354;20.886;2023-07-02T17:21:08;25.00;59.60
18207;DHT22;9229;52.354;20.886;2023-07-02T17:26:10;24.80;59.60
18207;DHT22;9229;52.354;20.886;2023-07-02T17:31:12;24.70;59.80
18207;DHT22;9229;52.354;20.886;2023-07-02T17:36:17;24.70;60.10
18207;DHT22;9229;52.354;20.886;2023-07-02T17:41:19;24.60;60.00
18207;DHT22;9229;52.354;20.886;2023-07-02T17:46:22;24.40;60.10
18207;DHT22;9229;52.354;20.886;2023-07-02T17:51:25;24.20;61.00
18207;DHT22;9229;52.354;20.886;2023-07-02T17:56:27;24.10;61.40
18207;DHT22;9229;52.354;20.886;2023-07-02T18:01:38;24.00;61.80
18207;DHT22;9229;52.354;20.886;2023-07-02T18:06:45;23.90;62.40
18207;DHT22;9229;52.354;20.886;2023-07-02T18:11:47;23.70;62.90
18207;DHT22;9229;52.354;20.886;2023-07-02T18:16:52;23.50;62.80
18207;DHT22;9229;52.354;20.886;2023-07-02T18:21:57;23.20;63.30
18207;DHT22;9229;52.354;20.886;2023-07-02T18:27:02;23.00;63.90
18207;DHT22;9229;52.354;20.886;2023-07-02T18:32:06;22.90;64.70
18207;DHT22;9229;52.354;20.886;2023-07-02T18:37:10;22.70;65.10
18207;DHT22;9229;52.354;20.886;2023-07-02T18:42:12;22.60;65.80
18207;DHT22;9229;52.354;20.886;2023-07-02T18:47:15;22.30;66.50
18207;DHT22;9229;52.354;20.886;2023-07-02T18:52:20;22.20;67.50
18207;DHT22;9229;52.354;20.886;2023-07-02T18:57:31;22.00;66.90
18207;DHT22;9229;52.354;20.886;2023-07-02T19:02:34;21.80;66.60
18207;DHT22;9229;52.354;20.886;2023-07-02T19:07:37;21.60;66.40
18207;DHT22;9229;52.354;20.886;2023-07-02T19:12:39;21.40;65.80
18207;DHT22;9229;52.354;20.886;2023-07-02T19:17:53;21.40;66.40
18207;DHT22;9229;52.354;20.886;2023-07-02T19:23:32;21.20;66.20
18207;DHT22;9229;52.354;20.886;2023-07-02T19:28:58;21.30;66.90
18207;DHT22;9229;52.354;20.886;2023-07-02T19:34:41;20.80;67.40
18207;DHT22;9229;52.354;20.886;2023-07-02T19:46:45;19.30;68.00
18207;DHT22;9229;52.354;20.886;2023-07-02T19:51:48;19.50;67.90
18207;DHT22;9229;52.354;20.886;2023-07-02T19:57:01;20.20;69.60
18207;DHT22;9229;52.354;20.886;2023-07-02T20:02:06;19.00;69.00
18207;DHT22;9229;52.354;20.886;2023-07-02T20:12:20;19.60;70.40
18207;DHT22;9229;52.354;20.886;2023-07-02T20:23:04;19.20;76.40
18207;DHT22;9229;52.354;20.886;2023-07-02T20:28:09;18.90;78.50
18207;DHT22;9229;52.354;20.886;2023-07-02T20:33:13;19.10;72.10
18207;DHT22;9229;52.354;20.886;2023-07-02T20:48:27;18.70;74.10
18207;DHT22;9229;52.354;20.886;2023-07-02T21:03:39;18.00;80.00
18207;DHT22;9229;52.354;20.886;2023-07-02T21:13:52;17.60;80.50
18207;DHT22;9229;52.354;20.886;2023-07-02T21:18:56;17.80;79.70
18207;DHT22;9229;52.354;20.886;2023-07-02T21:29:02;17.40;83.40
18207;DHT22;9229;52.354;20.886;2023-07-02T21:34:07;17.50;79.00
18207;DHT22;9229;52.354;20.886;2023-07-02T21:39:10;16.90;86.80
18207;DHT22;9229;52.354;20.886;2023-07-02T21:44:21;17.00;94.20
18207;DHT22;9229;52.354;20.886;2023-07-02T21:49:27;17.10;81.20
18207;DHT22;9229;52.354;20.886;2023-07-02T21:54:33;16.90;82.10
18207;DHT22;9229;52.354;20.886;2023-07-02T21:59:48;16.80;83.00
18207;DHT22;9229;52.354;20.886;2023-07-02T22:04:58;16.70;86.70
18207;DHT22;9229;52.354;20.886;2023-07-02T22:15:02;16.50;85.80
18207;DHT22;9229;52.354;20.886;2023-07-02T22:43:17;16.00;90.00
18207;DHT22;9229;52.354;20.886;2023-07-02T22:58:28;15.70;91.10
18207;DHT22;9229;52.354;20.886;2023-07-02T23:13:36;15.50;92.20
18207;DHT22;9229;52.354;20.886;2023-07-02T23:28:47;15.20;93.10
18207;DHT22;9229;52.354;20.886;2023-07-02T23:33:54;15.50;99.90
18207;DHT22;9229;52.354;20.886;2023-07-02T23:43:59;16.20;95.20
18207;DHT22;9229;52.354;20.886;2023-07-02T23:49:03;15.00;99.30
18207;DHT22;9229;52.354;20.886;2023-07-02T23:54:05;14.80;99.80
18207;DHT22;9229;52.354;20.886;2023-07-02T23:59:12;14.50;97.70
